Time;durP1;ratioP1;P1;durP2;ratioP2;P2;SDS_P1;SDS_P2;PMS_P1;PMS_P2;Temp;Humidity;BMP_temperature;BMP_pressure;BME280_temperature;BME280_humidity;BME280_pressure;Samples;Min_cycle;Max_cycle;Signal;HPM_P1;HPM_P2
2022/04/20 00:00:34;;;;;;;6.20;3.88;;;;;;;3.11;65.03;100731.97;4996155;28;20034;-80
2022/04/20 00:02:59;;;;;;;7.82;4.20;;;;;;;3.14;65.22;100735.53;5004684;28;20046;-80
2022/04/20 00:05:25;;;;;;;6.85;3.70;;;;;;;3.19;65.48;100735.66;5007394;28;20104;-80
2022/04/20 00:07:50;;;;;;;6.45;3.92;;;;;;;3.14;66.19;100737.25;5004392;28;20030;-80
2022/04/20 00:10:16;;;;;;;10.43;4.93;;;;;;;3.16;67.88;100740.78;4988964;28;20034;-80
2022/04/20 00:12:41;;;;;;;8.30;5.15;;;;;;;3.20;67.24;100743.53;5005566;28;20180;-80
2022/04/20 00:15:07;;;;;;;9.05;4.90;;;;;;;3.10;69.44;100746.72;5003946;28;20065;-79
2022/04/20 00:17:32;;;;;;;11.05;5.65;;;;;;;3.06;69.06;100737.03;5007656;28;20044;-79
2022/04/20 00:19:58;;;;;;;7.47;4.93;;;;;;;3.06;69.25;100744.88;5004305;28;20056;-80
2022/04/20 00:22:23;;;;;;;8.27;4.97;;;;;;;3.06;69.03;100745.75;5002431;28;20129;-80
2022/04/20 00:24:48;;;;;;;8.50;5.15;;;;;;;2.92;71.05;100754.91;5008738;28;20629;-78
2022/04/20 00:27:13;;;;;;;6.40;4.47;;;;;;;2.85;69.29;100746.03;5007902;28;20627;-80
2022/04/20 00:29:39;;;;;;;8.40;5.03;;;;;;;2.81;69.91;100748.53;5009848;28;20058;-80
2022/04/20 00:32:05;;;;;;;9.38;4.93;;;;;;;2.73;69.66;100750.03;5013977;28;20484;-79
2022/04/20 00:34:30;;;;;;;8.90;4.18;;;;;;;2.64;68.71;100753.22;4999031;28;20108;-80
2022/04/20 00:36:55;;;;;;;9.63;4.47;;;;;;;2.55;69.71;100756.47;5016922;28;20046;-80
2022/04/20 00:39:21;;;;;;;8.25;4.65;;;;;;;2.39;70.48;100749.91;5015017;28;20042;-80
2022/04/20 00:41:47;;;;;;;7.15;4.05;;;;;;;2.37;70.14;100756.78;5002145;28;20036;-80
2022/04/20 00:44:13;;;;;;;8.88;5.63;;;;;;;2.37;69.66;100753.28;5032513;28;20073;-80
2022/04/20 00:46:40;;;;;;;8.65;5.15;;;;;;;2.40;69.51;100750.78;5021177;28;20187;-80
2022/04/20 00:49:06;;;;;;;7.18;4.10;;;;;;;2.36;70.47;100744.59;5015734;28;20480;-80
2022/04/20 00:51:32;;;;;;;7.65;4.97;;;;;;;2.31;70.40;100746.19;5013994;28;20031;-80
2022/04/20 00:54:00;;;;;;;8.07;4.55;;;;;;;2.31;70.41;100740.97;5031463;28;20033;-80
2022/04/20 00:56:26;;;;;;;7.80;4.35;;;;;;;2.30;69.92;100743.53;5004627;28;20618;-80
2022/04/20 00:58:53;;;;;;;9.20;5.18;;;;;;;2.25;69.51;100750.31;5005339;28;20408;-80
2022/04/20 01:01:19;;;;;;;8.23;4.82;;;;;;;2.28;70.08;100745.19;5002190;28;20027;-80
2022/04/20 01:03:44;;;;;;;9.45;5.50;;;;;;;2.30;70.86;100743.53;5013543;28;20416;-80
2022/04/20 01:06:28;;;;;;;8.25;5.53;;;;;;;2.37;71.56;100745.47;5010581;28;20480;-80
2022/04/20 01:09:13;;;;;;;8.15;5.00;;;;;;;2.41;71.00;100747.31;5010173;28;20052;-80
2022/04/20 01:11:39;;;;;;;9.40;5.05;;;;;;;2.46;70.73;100745.75;5029868;28;20038;-80
2022/04/20 01:14:21;;;;;;;10.23;5.63;;;;;;;2.47;70.50;100747.53;5012953;28;20039;-79
2022/04/20 01:16:52;;;;;;;7.53;4.55;;;;;;;2.42;72.15;100743.91;5004181;28;20101;-80
2022/04/20 01:19:40;;;;;;;10.05;5.90;;;;;;;2.39;74.17;100746.41;5019952;28;20046;-80
2022/04/20 01:22:24;;;;;;;7.28;4.85;;;;;;;2.37;74.29;100745.47;5007885;28;20057;-80
2022/04/20 01:25:16;;;;;;;9.60;5.75;;;;;;;2.36;75.17;100743.72;5017437;28;20046;-80
2022/04/20 01:28:02;;;;;;;7.60;5.25;;;;;;;2.38;74.90;100740.34;5012029;28;20076;-80
2022/04/20 01:30:44;;;;;;;12.73;4.43;;;;;;;2.40;73.14;100737.75;5026914;28;20054;-80
2022/04/20 01:33:48;;;;;;;8.52;4.47;;;;;;;2.30;72.19;100735.72;4923945;29;20509;-80
2022/04/20 01:36:14;;;;;;;9.82;5.47;;;;;;;2.29;71.33;100733.94;4923099;29;20050;-80
2022/04/20 01:38:39;;;;;;;7.95;5.10;;;;;;;2.26;71.78;100733.88;4953100;28;20045;-80
2022/04/20 01:41:05;;;;;;;9.52;5.63;;;;;;;2.12;73.27;100736.94;5020832;28;20553;-80
2022/04/20 01:43:32;;;;;;;7.88;4.45;;;;;;;2.07;72.73;100729.78;5026985;28;20041;-80
2022/04/20 01:46:15;;;;;;;12.82;5.60;;;;;;;2.04;72.58;100725.34;5020314;28;20034;-80
2022/04/20 01:48:53;;;;;;;8.40;5.43;;;;;;;2.04;73.48;100724.47;5025378;28;20038;-80
2022/04/20 01:51:46;;;;;;;10.25;6.00;;;;;;;2.08;73.47;100719.44;5020798;28;20386;-80
2022/04/20 01:54:32;;;;;;;10.18;5.70;;;;;;;2.11;73.48;100726.44;5027718;28;20045;-79
2022/04/20 01:57:26;;;;;;;8.80;5.10;;;;;;;2.02;72.67;100726.16;5000331;28;20397;-80
2022/04/20 02:00:03;;;;;;;7.93;5.20;;;;;;;1.95;72.64;100719.88;5001886;28;20034;-80
2022/04/20 02:02:48;;;;;;;8.20;5.63;;;;;;;1.77;74.11;100719.28;5006334;28;20596;-80
2022/04/20 02:05:32;;;;;;;9.15;5.18;;;;;;;1.67;74.29;100721.59;5021915;28;20062;-80
2022/04/20 02:08:10;;;;;;;8.02;5.43;;;;;;;1.49;75.56;100718.38;5011630;28;20054;-80
2022/04/20 02:11:01;;;;;;;9.60;5.40;;;;;;;1.47;75.03;100720.06;5005572;28;20042;-80
2022/04/20 02:13:27;;;;;;;10.20;5.70;;;;;;;1.48;74.97;100714.91;5026176;28;20574;-80
2022/04/20 02:15:56;;;;;;;7.95;4.97;;;;;;;1.50;75.35;100717.56;5010542;28;20034;-80
2022/04/20 02:18:53;;;;;;;7.65;5.35;;;;;;;1.49;75.50;100713.16;5005495;28;20501;-80
2022/04/20 02:21:35;;;;;;;9.77;5.75;;;;;;;1.49;75.28;100710.56;5003556;28;20034;-80
2022/04/20 02:24:00;;;;;;;10.52;5.65;;;;;;;1.51;75.37;100712.38;5004717;28;20042;-80
2022/04/20 02:26:25;;;;;;;14.57;5.53;;;;;;;1.48;75.35;100707.09;5009332;28;20133;-80
2022/04/20 02:28:51;;;;;;;8.10;6.15;;;;;;;1.47;75.28;100709.66;5001251;28;20132;-80
2022/04/20 02:31:16;;;;;;;10.40;4.97;;;;;;;1.42;75.59;100706.03;5023433;28;20038;-80
2022/04/20 02:33:42;;;;;;;9.70;4.95;;;;;;;1.42;75.46;100706.91;5017747;28;20072;-80
2022/04/20 02:36:08;;;;;;;8.48;6.00;;;;;;;1.41;76.79;100701.63;4999072;28;20034;-80
2022/04/20 02:38:36;;;;;;;9.30;5.30;;;;;;;1.43;76.64;100697.38;5024405;28;20412;-79
2022/04/20 02:41:02;;;;;;;10.20;5.50;;;;;;;1.45;77.10;100700.91;5010427;28;20053;-80
2022/04/20 02:43:27;;;;;;;10.95;6.35;;;;;;;1.44;77.25;100706.94;5023137;28;20481;-80
2022/04/20 02:45:54;;;;;;;9.55;5.95;;;;;;;1.38;76.85;100701.53;5010553;28;20037;-80
2022/04/20 02:48:20;;;;;;;11.45;6.90;;;;;;;1.28;76.76;100703.84;5008056;28;20117;-80
2022/04/20 02:50:46;;;;;;;10.98;6.60;;;;;;;1.27;76.81;100699.44;5007969;28;20072;-80
2022/04/20 02:53:13;;;;;;;10.68;6.95;;;;;;;1.29;77.35;100699.50;4993502;28;20034;-80
2022/04/20 02:55:39;;;;;;;11.50;7.20;;;;;;;1.38;77.11;100698.94;5024654;28;20026;-80
2022/04/20 02:58:06;;;;;;;11.27;7.90;;;;;;;1.44;76.81;100700.03;4998884;28;20041;-80
2022/04/20 03:00:31;;;;;;;13.52;7.40;;;;;;;1.53;76.43;100694.25;5022618;28;20030;-79
2022/04/20 03:03:10;;;;;;;11.02;7.55;;;;;;;1.57;76.20;100700.41;5008172;28;20022;-79
2022/04/20 03:05:35;;;;;;;11.98;7.18;;;;;;;1.58;75.23;100699.59;5012552;28;20033;-80
2022/04/20 03:08:02;;;;;;;11.55;7.68;;;;;;;1.55;75.67;100703.00;5003609;28;20025;-80
2022/04/20 03:10:27;;;;;;;11.32;6.40;;;;;;;1.52;75.13;100697.69;4996842;28;20093;-80
2022/04/20 03:12:53;;;;;;;10.57;7.45;;;;;;;1.49;75.10;100706.28;4990712;28;20050;-80
2022/04/20 03:15:18;;;;;;;11.50;7.72;;;;;;;1.43;75.25;100703.44;5007991;28;20034;-80
2022/04/20 03:17:44;;;;;;;12.80;8.77;;;;;;;1.43;74.97;100712.97;4988854;28;20127;-80
2022/04/20 03:20:11;;;;;;;15.32;10.93;;;;;;;1.47;75.38;100709.66;4999164;28;20034;-80
2022/04/20 03:22:37;;;;;;;12.57;8.50;;;;;;;1.47;75.11;100709.66;4997481;28;20102;-79
2022/04/20 03:25:04;;;;;;;10.82;7.57;;;;;;;1.47;75.31;100710.53;5022436;28;20038;-80
2022/04/20 03:27:37;;;;;;;13.73;7.68;;;;;;;1.47;75.11;100713.13;4996844;28;20058;-80
2022/04/20 03:30:04;;;;;;;11.55;8.25;;;;;;;1.52;75.80;100713.31;5022669;28;20404;-80
2022/04/20 03:32:30;;;;;;;12.30;7.70;;;;;;;1.61;75.52;100712.72;4998193;28;20050;-80
2022/04/20 03:34:55;;;;;;;11.15;8.43;;;;;;;1.69;75.72;100713.84;5006441;28;20054;-80
2022/04/20 03:37:21;;;;;;;13.02;8.93;;;;;;;1.77;75.35;100706.28;5014628;28;20042;-80
2022/04/20 03:39:46;;;;;;;10.27;6.78;;;;;;;1.86;75.18;100709.16;4996567;28;20081;-80
2022/04/20 03:42:12;;;;;;;11.35;8.05;;;;;;;1.84;74.80;100700.44;4997146;28;20513;-80
2022/04/20 03:44:38;;;;;;;10.98;8.23;;;;;;;1.91;75.87;100712.78;5003265;28;20045;-80
2022/04/20 03:47:03;;;;;;;14.13;9.95;;;;;;;2.05;75.58;100711.53;4997071;28;20485;-80
2022/04/20 03:49:29;;;;;;;11.90;8.23;;;;;;;2.21;75.35;100707.66;4992597;28;20038;-80
2022/04/20 03:51:54;;;;;;;12.80;9.93;;;;;;;2.32;74.72;100716.69;5005511;28;20034;-79
2022/04/20 03:54:27;;;;;;;12.65;9.52;;;;;;;2.45;74.64;100715.34;4995503;28;20050;-80
2022/04/20 03:57:04;;;;;;;13.13;8.68;;;;;;;2.56;74.73;100713.91;4996359;28;20042;-81
2022/04/20 03:59:37;;;;;;;12.13;8.13;;;;;;;2.75;74.67;100710.16;5022055;28;20037;-80
2022/04/20 04:02:06;;;;;;;11.32;8.02;;;;;;;2.80;74.35;100702.44;5026335;28;20058;-80
2022/04/20 04:04:38;;;;;;;12.18;8.20;;;;;;;2.79;73.43;100713.72;5002667;28;20042;-80
2022/04/20 04:07:12;;;;;;;13.00;9.65;;;;;;;2.80;73.49;100705.94;5003617;28;20038;-80
2022/04/20 04:09:38;;;;;;;11.07;8.55;;;;;;;2.85;73.47;100719.97;4986025;28;20042;-80
2022/04/20 04:12:06;;;;;;;14.93;9.90;;;;;;;3.00;73.37;100714.28;5024275;28;20541;-80
2022/04/20 04:14:38;;;;;;;10.85;8.02;;;;;;;3.16;72.79;100714.72;4999964;28;20038;-80
2022/04/20 04:17:05;;;;;;;11.52;8.75;;;;;;;3.24;72.17;100719.28;5008647;28;20041;-80
2022/04/20 04:19:30;;;;;;;13.75;9.63;;;;;;;3.34;72.27;100715.19;5002271;28;20041;-80
2022/04/20 04:21:56;;;;;;;12.27;8.80;;;;;;;3.43;71.57;100710.22;5023496;28;20084;-79
2022/04/20 04:24:37;;;;;;;13.20;9.38;;;;;;;3.47;72.12;100714.66;5026085;28;20049;-80
2022/04/20 04:27:09;;;;;;;12.68;8.07;;;;;;;3.52;71.73;100714.78;4995901;28;20038;-80
2022/04/20 04:29:38;;;;;;;11.93;8.85;;;;;;;3.62;71.16;100705.47;5025465;28;20038;-80
2022/04/20 04:32:05;;;;;;;14.07;9.63;;;;;;;3.74;71.03;100718.81;4985328;28;20054;-81
2022/04/20 04:34:30;;;;;;;11.93;8.65;;;;;;;3.81;70.30;100723.34;4991078;28;20041;-80
2022/04/20 04:36:56;;;;;;;11.35;8.05;;;;;;;3.86;70.10;100720.84;5024891;28;20080;-80
2022/04/20 04:39:23;;;;;;;11.45;8.07;;;;;;;3.83;70.67;100721.66;5015389;28;20034;-80
2022/04/20 04:41:50;;;;;;;12.73;8.88;;;;;;;3.85;71.08;100713.84;5009332;28;20029;-80
2022/04/20 04:44:18;;;;;;;13.20;8.85;;;;;;;3.97;70.93;100726.31;5023347;28;20037;-80
2022/04/20 04:49:38;;;;;;;13.68;8.60;;;;;;;4.02;69.44;100728.19;4999373;28;20034;-80
2022/04/20 04:52:11;;;;;;;11.40;8.40;;;;;;;4.08;69.24;100728.31;5022666;28;20034;-80
2022/04/20 04:54:39;;;;;;;12.82;8.13;;;;;;;4.11;68.96;100730.13;4997277;28;20031;-80
2022/04/20 04:57:07;;;;;;;13.48;8.77;;;;;;;4.15;69.10;100732.84;5025343;28;20049;-81
2022/04/20 04:59:42;;;;;;;11.48;8.40;;;;;;;4.25;68.49;100736.56;5000040;28;20505;-81
2022/04/20 05:02:09;;;;;;;16.45;11.93;;;;;;;4.16;69.11;100732.00;5024427;28;20488;-81
2022/04/20 05:04:35;;;;;;;12.73;8.82;;;;;;;4.27;69.06;100728.75;5001295;28;20029;-80
2022/04/20 05:07:03;;;;;;;14.63;8.90;;;;;;;4.39;68.17;100729.91;5022526;28;20038;-81
2022/04/20 05:09:39;;;;;;;11.73;8.07;;;;;;;4.48;67.77;100733.56;5014936;28;20030;-81
2022/04/20 05:12:07;;;;;;;11.60;7.68;;;;;;;4.62;67.92;100726.91;5013780;28;20481;-80
2022/04/20 05:14:36;;;;;;;10.98;8.10;;;;;;;4.68;67.30;100732.25;5010243;28;20064;-80
2022/04/20 05:17:02;;;;;;;11.88;7.90;;;;;;;4.67;67.77;100729.63;5003517;28;20042;-80
2022/04/20 05:19:29;;;;;;;13.38;7.85;;;;;;;4.62;67.61;100726.91;5023580;28;20077;-80
2022/04/20 05:21:59;;;;;;;12.90;8.35;;;;;;;4.56;68.14;100722.44;5007607;28;20122;-80
2022/04/20 05:24:31;;;;;;;12.55;8.02;;;;;;;4.59;68.21;100719.00;5017452;28;20037;-81
2022/04/20 05:26:56;;;;;;;11.43;7.85;;;;;;;4.68;67.58;100724.41;5007000;28;20054;-81
2022/04/20 05:29:23;;;;;;;11.18;8.90;;;;;;;4.81;67.38;100715.09;5006756;28;20416;-81
2022/04/20 05:32:02;;;;;;;10.13;7.57;;;;;;;4.91;67.34;100710.94;4998135;28;20509;-81
2022/04/20 05:34:30;;;;;;;11.32;8.10;;;;;;;5.03;67.38;100705.94;5026187;28;20034;-80
2022/04/20 05:42:26;;;;;;;12.80;7.68;;;;;;;5.38;65.54;100705.72;5003538;28;20042;-81
2022/04/20 05:44:52;;;;;;;9.73;6.88;;;;;;;5.49;65.41;100710.28;5015411;28;20026;-80
2022/04/20 05:47:18;;;;;;;11.52;8.23;;;;;;;5.53;65.66;100706.00;5003375;28;20041;-81
2022/04/20 05:49:43;;;;;;;16.42;8.45;;;;;;;5.66;65.28;100697.47;5024751;28;20034;-81
2022/04/20 05:52:10;;;;;;;10.75;7.30;;;;;;;5.80;65.02;100707.28;5027290;28;20069;-81
2022/04/20 05:54:35;;;;;;;12.50;7.80;;;;;;;5.90;64.69;100710.09;5016233;28;20034;-81
2022/04/20 05:57:01;;;;;;;12.43;7.78;;;;;;;5.99;63.98;100717.22;5018560;28;20037;-81
2022/04/20 05:59:28;;;;;;;12.60;7.53;;;;;;;6.03;63.70;100712.94;4991163;28;20030;-81
2022/04/20 06:01:55;;;;;;;11.95;7.50;;;;;;;6.09;64.37;100713.91;4995915;28;20496;-80
2022/04/20 06:04:21;;;;;;;12.50;7.43;;;;;;;6.18;63.86;100715.75;5025841;28;20500;-81
2022/04/20 06:07:06;;;;;;;11.90;7.80;;;;;;;6.23;63.95;100707.97;4992605;28;20057;-81
2022/04/20 06:09:37;;;;;;;12.77;8.25;;;;;;;6.24;64.05;100707.13;5023959;28;20034;-81
2022/04/20 06:12:22;;;;;;;15.10;7.63;;;;;;;6.25;64.50;100708.88;5002134;28;20121;-81
2022/04/20 06:15:18;;;;;;;11.48;7.80;;;;;;;6.39;64.31;100709.06;5028510;28;20034;-81
2022/04/20 06:18:00;;;;;;;13.32;7.90;;;;;;;6.52;63.75;100704.03;5027564;28;20030;-81
2022/04/20 06:20:26;;;;;;;14.98;8.73;;;;;;;6.49;63.43;100697.84;5002218;28;20548;-81
2022/04/20 06:23:20;;;;;;;13.07;8.45;;;;;;;6.54;63.62;100706.66;5023438;28;20049;-81
2022/04/20 06:26:04;;;;;;;17.10;8.75;;;;;;;6.64;63.96;100692.81;5006908;28;20042;-81
2022/04/20 06:28:45;;;;;;;14.13;8.88;;;;;;;6.70;63.12;100681.50;5009753;28;20041;-81
2022/04/20 06:31:30;;;;;;;12.40;8.40;;;;;;;6.82;62.97;100680.78;5018169;28;20069;-81
2022/04/20 06:34:15;;;;;;;13.20;8.52;;;;;;;6.84;62.52;100685.19;5015142;28;20074;-80
2022/04/20 06:36:49;;;;;;;11.85;8.23;;;;;;;6.88;62.25;100680.84;5012751;28;20089;-81
2022/04/20 06:39:38;;;;;;;12.30;8.00;;;;;;;6.88;62.63;100681.72;5024517;28;20105;-80
2022/04/20 06:42:33;;;;;;;11.52;7.55;;;;;;;6.82;63.10;100679.03;5010729;28;20040;-80
2022/04/20 06:45:20;;;;;;;16.95;8.25;;;;;;;6.94;62.86;100686.13;5011448;28;20516;-80
2022/04/20 06:48:01;;;;;;;12.82;9.00;;;;;;;6.97;63.26;100676.59;5024914;28;20078;-80
2022/04/20 06:50:43;;;;;;;10.52;8.13;;;;;;;7.21;62.76;100680.31;5022657;28;20034;-80
2022/04/20 06:58:59;;;;;;;11.00;8.05;;;;;;;7.38;62.11;100677.84;5010588;28;20077;-80
2022/04/20 07:01:55;;;;;;;9.98;7.22;;;;;;;7.41;61.56;100678.78;4993254;28;20531;-80
2022/04/20 07:04:23;;;;;;;10.45;7.72;;;;;;;7.50;61.78;100675.34;5011890;28;20048;-80
2022/04/20 07:07:06;;;;;;;14.25;8.45;;;;;;;7.60;61.75;100681.56;5007426;28;20080;-80
2022/04/20 07:09:49;;;;;;;;;;;;;;;7.74;60.94;100676.41;4999929;28;20038;-80
2022/04/20 07:12:20;;;;;;;12.93;8.20;;;;;;;7.86;60.34;100674.75;5025927;28;19918;-80
2022/04/20 07:14:54;;;;;;;9.82;6.75;;;;;;;8.00;60.70;100672.22;5019305;22;20048;-80
2022/04/20 07:17:19;;;;;;;11.43;7.53;;;;;;;8.10;60.09;100676.66;4991412;28;20031;-81
2022/04/20 07:20:40;;;;;;;13.23;6.78;;;;;;;8.21;59.62;100668.84;5006120;28;20051;-80
2022/04/20 07:23:23;;;;;;;11.73;7.78;;;;;;;8.33;60.05;100662.75;5025349;28;20045;-80
2022/04/20 07:25:52;;;;;;;;;;;;;;;8.51;59.51;100667.25;4992031;28;20037;-80
2022/04/20 07:28:48;;;;;;;;;;;;;;;;;;;;;
2022/04/20 07:32:02;;;;;;;17.58;8.27;;;;;;;8.90;57.96;100665.66;4992205;28;20031;-80
2022/04/20 07:34:58;;;;;;;11.30;6.72;;;;;;;9.10;56.08;100657.81;4993341;28;20114;-80
2022/04/20 07:37:46;;;;;;;11.18;6.38;;;;;;;9.05;54.85;100662.19;4984002;28;20102;-80
2022/04/20 07:40:48;;;;;;;12.45;6.07;;;;;;;9.03;55.46;100656.91;4992159;28;20050;-80
2022/04/20 07:43:32;;;;;;;14.25;10.15;;;;;;;9.25;55.85;100663.09;5006598;28;20061;-80
2022/04/20 07:46:24;;;;;;;12.45;6.72;;;;;;;9.37;55.13;100667.50;5010225;28;20042;-81
2022/04/20 07:52:18;;;;;;;8.68;5.90;;;;;;;9.49;54.45;100678.03;4998283;28;20117;-80
2022/04/20 07:55:11;;;;;;;9.05;6.35;;;;;;;9.25;54.60;100678.00;4993845;28;20088;-80
2022/04/20 07:57:45;;;;;;;16.30;6.95;;;;;;;9.34;54.29;100678.91;4992064;28;20052;-80
2022/04/20 08:00:30;;;;;;;9.40;6.10;;;;;;;9.31;54.08;100680.66;4992511;28;20078;-80
2022/04/20 08:03:16;;;;;;;9.80;6.53;;;;;;;9.23;55.21;100678.03;4991893;28;20110;-80
2022/04/20 08:05:48;;;;;;;8.85;6.32;;;;;;;9.30;55.06;100682.44;4974798;28;20038;-80
2022/04/20 08:08:14;;;;;;;11.10;6.78;;;;;;;9.20;54.49;100685.91;4990655;28;20045;-80
2022/04/20 08:10:39;;;;;;;7.95;5.38;;;;;;;9.08;54.79;100681.50;4991296;28;20026;-80
2022/04/20 08:15:49;;;;;;;8.05;5.50;;;;;;;9.03;55.36;100677.97;5005269;28;20035;-80
2022/04/20 08:18:17;;;;;;;10.40;6.10;;;;;;;9.04;54.62;100690.28;4990120;28;20034;-80
2022/04/20 08:21:08;;;;;;;10.32;6.30;;;;;;;9.13;54.81;100682.38;4993327;28;20042;-80
2022/04/20 08:23:33;;;;;;;8.07;5.43;;;;;;;9.23;54.93;100679.78;4991058;28;20049;-80
2022/04/20 08:26:00;;;;;;;10.93;5.43;;;;;;;9.20;54.69;100681.53;4992115;28;20034;-81
2022/04/20 08:28:25;;;;;;;11.60;5.90;;;;;;;9.09;55.16;100677.09;4991582;28;20081;-80
2022/04/20 08:30:51;;;;;;;8.88;5.68;;;;;;;9.20;55.07;100686.78;4989519;28;20027;-80
2022/04/20 08:33:16;;;;;;;7.30;5.25;;;;;;;9.32;54.51;100678.00;4993028;28;20121;-80
2022/04/20 08:35:41;;;;;;;12.27;5.65;;;;;;;9.34;54.98;100672.75;4989757;28;20069;-80
2022/04/20 08:38:07;;;;;;;9.85;6.25;;;;;;;9.41;54.60;100670.13;4989627;28;20477;-80
2022/04/20 08:40:33;;;;;;;8.73;5.97;;;;;;;9.47;54.76;100673.66;4989501;28;20485;-80
2022/04/20 08:43:01;;;;;;;9.15;6.20;;;;;;;9.46;54.64;100674.50;4992273;28;20049;-80
2022/04/20 08:45:27;;;;;;;8.77;6.15;;;;;;;9.45;54.96;100663.09;4990053;28;20046;-80
2022/04/20 08:47:55;;;;;;;10.23;6.22;;;;;;;9.51;54.44;100662.22;4993058;28;20031;-79
2022/04/20 08:50:21;;;;;;;9.80;5.93;;;;;;;9.63;55.19;100649.94;4995082;28;20038;-80
2022/04/20 08:52:49;;;;;;;11.18;6.63;;;;;;;9.85;54.45;100658.72;5009281;28;20063;-80
2022/04/20 08:55:17;;;;;;;10.30;6.13;;;;;;;9.88;54.59;100657.84;4994548;28;20549;-80
2022/04/20 08:57:45;;;;;;;8.98;6.45;;;;;;;10.10;54.50;100653.38;4994962;28;20058;-80
2022/04/20 09:00:14;;;;;;;11.10;6.65;;;;;;;10.28;53.90;100658.66;4996146;28;20459;-80
2022/04/20 09:02:39;;;;;;;9.27;6.03;;;;;;;10.22;53.57;100661.28;4994169;28;20035;-80
2022/04/20 09:05:05;;;;;;;7.43;5.45;;;;;;;10.23;53.85;100656.88;4997833;28;20035;-80
2022/04/20 09:07:32;;;;;;;10.40;5.88;;;;;;;10.29;53.35;100649.84;4992266;28;20046;-80
2022/04/20 09:09:58;;;;;;;8.25;5.75;;;;;;;10.28;53.26;100650.72;5007078;28;20042;-80
2022/04/20 09:12:25;;;;;;;12.07;5.68;;;;;;;10.28;54.04;100652.50;4992868;28;20102;-80
2022/04/20 09:14:52;;;;;;;12.40;6.57;;;;;;;10.26;54.11;100651.59;4994771;28;20070;-80
2022/04/20 09:17:19;;;;;;;8.77;5.80;;;;;;;10.24;53.71;100642.78;5010683;28;20429;-80
2022/04/20 09:19:47;;;;;;;9.27;5.30;;;;;;;10.26;53.67;100656.88;4992951;28;20039;-80
2022/04/20 09:22:23;;;;;;;9.80;6.13;;;;;;;10.40;53.61;100652.47;4994894;28;20026;-80
2022/04/20 09:25:06;;;;;;;11.68;6.47;;;;;;;10.42;53.60;100647.16;4993871;28;20039;-80
2022/04/20 09:27:33;;;;;;;8.73;6.75;;;;;;;10.46;53.52;100647.16;5010259;28;20102;-80
2022/04/20 09:30:00;;;;;;;8.90;5.88;;;;;;;10.57;53.14;100651.53;4991925;28;20031;-80
2022/04/20 09:32:38;;;;;;;9.57;6.22;;;;;;;10.59;52.57;100660.31;4993608;28;20041;-79
2022/04/20 09:35:10;;;;;;;11.93;5.70;;;;;;;10.59;53.65;100652.41;4994667;28;20045;-80
2022/04/20 09:37:36;;;;;;;11.13;6.00;;;;;;;10.51;53.20;100657.72;5008817;28;20039;-80
2022/04/20 09:40:38;;;;;;;9.50;5.65;;;;;;;10.56;53.66;100658.56;4994123;28;20031;-80
2022/04/20 09:43:06;;;;;;;7.80;5.70;;;;;;;10.50;53.78;100651.53;4991931;28;20057;-81
2022/04/20 09:45:33;;;;;;;11.65;5.68;;;;;;;10.71;53.76;100649.69;4993714;28;20041;-80
2022/04/20 09:51:13;;;;;;;9.07;5.22;;;;;;;11.21;52.95;100648.50;4998191;28;20524;-80
2022/04/20 09:53:40;;;;;;;8.88;5.28;;;;;;;11.34;52.75;100652.84;4991744;28;20421;-80
2022/04/20 09:56:16;;;;;;;8.40;6.00;;;;;;;11.35;52.51;100651.94;4997883;28;20053;-80
2022/04/20 09:58:43;;;;;;;10.15;5.38;;;;;;;11.45;52.92;100650.13;5009350;28;20034;-80
2022/04/20 10:01:23;;;;;;;9.00;5.00;;;;;;;11.56;52.26;100645.59;4990215;28;20027;-80
2022/04/20 10:03:53;;;;;;;9.10;5.47;;;;;;;11.71;52.38;100649.00;4990638;28;20046;-80
2022/04/20 10:06:18;;;;;;;6.63;5.10;;;;;;;11.82;51.30;100650.66;4990544;28;20046;-80
2022/04/20 10:08:43;;;;;;;10.35;5.53;;;;;;;12.04;52.29;100642.56;4995836;28;20497;-81
2022/04/20 10:11:12;;;;;;;11.23;5.65;;;;;;;12.15;51.89;100640.66;4972332;28;20046;-80
2022/04/20 10:13:39;;;;;;;7.53;5.47;;;;;;;12.36;51.28;100636.03;4984905;28;20041;-79
2022/04/20 10:16:07;;;;;;;10.82;5.22;;;;;;;12.47;51.36;100634.13;4992200;28;20486;-80
2022/04/20 10:18:46;;;;;;;6.97;4.80;;;;;;;12.45;51.96;100634.16;5007978;28;20073;-80
2022/04/20 10:21:12;;;;;;;9.70;5.10;;;;;;;12.35;51.64;100629.00;4990023;28;20045;-80
2022/04/20 10:23:45;;;;;;;6.47;4.28;;;;;;;12.32;51.75;100629.91;4992895;28;20047;-80
2022/04/20 10:26:11;;;;;;;7.50;4.80;;;;;;;12.01;52.59;100635.53;4990510;28;20043;-79
2022/04/20 10:28:55;;;;;;;8.65;4.28;;;;;;;11.76;52.71;100640.16;4992862;28;20493;-80
2022/04/20 10:31:38;;;;;;;7.70;4.20;;;;;;;11.71;53.31;100631.38;4994051;28;20034;-80
2022/04/20 10:34:05;;;;;;;6.05;3.90;;;;;;;11.67;52.70;100628.78;5006118;28;20027;-80
2022/04/20 10:36:59;;;;;;;8.00;3.78;;;;;;;11.83;52.03;100636.53;4989236;28;20046;-81
2022/04/20 10:39:27;;;;;;;5.72;3.00;;;;;;;11.68;51.54;100635.81;5008058;28;20030;-80
2022/04/20 10:42:11;;;;;;;4.93;2.63;;;;;;;11.59;52.27;100642.06;5007414;28;20027;-80
2022/04/20 10:45:11;;;;;;;6.07;3.38;;;;;;;11.88;52.34;100630.38;4990495;28;20634;-80
2022/04/20 10:47:40;;;;;;;9.63;3.70;;;;;;;12.02;51.57;100628.47;4974531;28;20409;-80
2022/04/20 10:50:13;;;;;;;5.85;3.22;;;;;;;11.97;51.26;100633.81;5003743;28;20094;-80
2022/04/20 10:52:39;;;;;;;;;;;;;;;12.08;51.03;100633.69;4990214;28;20035;-80
2022/04/20 10:55:06;;;;;;;7.47;3.42;;;;;;;12.32;51.58;100632.53;4990343;28;19921;-80
2022/04/20 10:57:36;;;;;;;5.95;3.00;;;;;;;12.41;52.58;100624.47;4992215;28;20046;-80
2022/04/20 11:00:16;;;;;;;7.95;3.60;;;;;;;12.03;54.46;100622.28;4992910;28;20138;-80
2022/04/20 11:03:05;;;;;;;5.80;3.20;;;;;;;11.62;54.39;100626.19;5006959;28;20051;-80
2022/04/20 11:05:31;;;;;;;6.65;3.40;;;;;;;11.41;56.57;100617.53;4991924;28;20066;-80
2022/04/20 11:07:59;;;;;;;4.88;3.38;;;;;;;11.32;58.69;100622.03;4990512;28;20238;-80
2022/04/20 11:10:25;;;;;;;6.53;3.30;;;;;;;11.57;57.94;100612.13;4990827;28;20031;-80
2022/04/20 11:18:39;;;;;;;8.32;3.58;;;;;;;12.05;56.56;100601.97;4991497;28;20412;-80
2022/04/20 11:21:17;;;;;;;5.68;4.15;;;;;;;11.99;57.33;100604.69;4990392;28;20054;-80
2022/04/20 11:24:03;;;;;;;6.05;3.70;;;;;;;12.08;58.37;100604.59;4997303;28;20096;-79
2022/04/20 11:26:41;;;;;;;7.55;3.55;;;;;;;12.40;55.60;100606.00;4991222;28;20033;-80
2022/04/20 11:29:17;;;;;;;5.50;3.60;;;;;;;12.31;57.07;100608.72;4990234;28;20524;-80
2022/04/20 11:31:48;;;;;;;7.97;4.20;;;;;;;12.27;57.25;100607.91;4989705;28;20041;-80
2022/04/20 11:34:16;;;;;;;8.60;4.32;;;;;;;11.86;56.34;100611.88;4992647;28;20575;-80
2022/04/20 11:36:43;;;;;;;7.35;4.63;;;;;;;11.80;58.54;100596.91;5005012;28;20035;-80
2022/04/20 11:39:10;;;;;;;7.93;3.83;;;;;;;12.00;57.62;100601.16;4993803;28;20180;-80
2022/04/20 11:41:35;;;;;;;6.38;4.15;;;;;;;11.71;57.50;100599.66;5006964;28;20035;-80
2022/04/20 11:44:02;;;;;;;6.45;3.78;;;;;;;11.53;58.84;100589.25;4991949;28;20432;-80
2022/04/20 11:46:27;;;;;;;6.80;3.70;;;;;;;11.95;58.63;100590.63;4989210;28;20456;-80
2022/04/20 11:48:57;;;;;;;7.20;4.10;;;;;;;12.07;58.11;100589.59;4993857;28;20058;-80
2022/04/20 11:51:34;;;;;;;5.68;3.38;;;;;;;12.19;57.63;100586.81;4991726;28;20030;-80
2022/04/20 11:54:00;;;;;;;6.28;3.38;;;;;;;12.00;56.15;100580.88;4991045;28;20066;-80
2022/04/20 11:56:40;;;;;;;6.43;3.25;;;;;;;11.44;57.39;100586.69;4993315;28;20034;-80
2022/04/20 11:59:07;;;;;;;7.30;3.10;;;;;;;11.15;58.60;100574.59;4992068;28;20138;-81
2022/04/20 12:01:34;;;;;;;5.18;3.42;;;;;;;11.13;58.86;100589.56;4993926;28;20409;-80
2022/04/20 12:04:04;;;;;;;6.13;3.58;;;;;;;11.10;59.25;100581.69;4992608;28;20239;-80
2022/04/20 12:06:30;;;;;;;5.28;3.03;;;;;;;10.82;61.16;100578.34;5007549;28;20050;-80
2022/04/20 12:08:55;;;;;;;6.05;3.05;;;;;;;11.00;60.57;100572.94;4995095;28;20046;-80
2022/04/20 12:11:21;;;;;;;4.55;2.90;;;;;;;10.91;60.45;100583.56;4992101;28;20038;-80
2022/04/20 12:13:53;;;;;;;5.55;3.15;;;;;;;10.58;62.81;100579.38;4994594;28;20045;-80
2022/04/20 12:16:18;;;;;;;5.93;3.38;;;;;;;10.48;63.24;100573.28;4996516;28;20042;-80
2022/04/20 12:18:46;;;;;;;6.43;3.85;;;;;;;10.66;63.98;100577.56;4994811;28;20038;-80
2022/04/20 12:21:43;;;;;;;5.95;2.90;;;;;;;10.94;61.67;100565.06;4996529;28;20042;-80